createdAt,value
2023-03-02T00:01:57.875Z,8.55
2023-03-02T00:04:30.502Z,9.18
2023-03-02T00:07:01.492Z,8.27
2023-03-02T00:09:30.539Z,8.15
2023-03-02T00:11:59.563Z,8.07
2023-03-02T00:14:29.741Z,8.82
2023-03-02T00:16:58.683Z,8.60
2023-03-02T00:19:27.399Z,9.00
2023-03-02T00:21:56.085Z,8.23
2023-03-02T00:24:24.975Z,7.47
2023-03-02T00:26:53.702Z,8.48
2023-03-02T00:29:22.516Z,8.80
2023-03-02T00:31:52.740Z,7.13
2023-03-02T00:34:21.734Z,7.13
2023-03-02T00:36:50.367Z,7.70
2023-03-02T00:39:20.208Z,6.95
2023-03-02T00:41:49.732Z,7.78
2023-03-02T00:44:18.662Z,7.43
2023-03-02T00:46:47.725Z,7.63
2023-03-02T00:49:17.864Z,7.93
2023-03-02T00:51:46.545Z,8.27
2023-03-02T00:54:15.467Z,7.88
2023-03-02T00:56:44.452Z,7.28
2023-03-02T00:59:26.314Z,8.48
2023-03-02T01:02:03.189Z,7.93
2023-03-02T01:04:38.224Z,7.75
2023-03-02T01:07:10.696Z,7.53
2023-03-02T01:09:39.860Z,8.30
2023-03-02T01:12:11.176Z,8.82
2023-03-02T01:14:41.467Z,7.43
2023-03-02T01:17:11.599Z,7.18
2023-03-02T01:19:42.062Z,7.10
2023-03-02T01:22:11.469Z,7.18
2023-03-02T01:24:42.194Z,7.32
2023-03-02T01:27:11.862Z,7.15
2023-03-02T01:29:40.829Z,6.97
2023-03-02T01:32:09.748Z,7.75
2023-03-02T01:34:38.505Z,7.40
2023-03-02T01:37:09.699Z,7.72
2023-03-02T01:39:38.496Z,7.28
2023-03-02T01:42:07.589Z,6.28
2023-03-02T01:44:39.746Z,7.00
2023-03-02T01:47:15.661Z,7.30
2023-03-02T01:49:57.370Z,6.28
2023-03-02T01:52:32.710Z,6.60
2023-03-02T01:55:05.553Z,6.53
2023-03-02T01:57:44.963Z,6.38
2023-03-02T02:00:17.458Z,6.75
2023-03-02T02:02:46.473Z,7.13
2023-03-02T02:05:20.801Z,7.00
2023-03-02T02:07:51.417Z,6.78
2023-03-02T02:10:20.866Z,6.95
2023-03-02T02:12:49.679Z,6.55
2023-03-02T02:15:18.620Z,6.40
2023-03-02T02:17:47.860Z,7.00
2023-03-02T02:20:25.126Z,7.07
2023-03-02T02:23:06.764Z,6.47
2023-03-02T02:25:48.189Z,6.22
2023-03-02T02:28:24.366Z,5.95
2023-03-02T02:31:00.553Z,6.35
2023-03-02T02:33:29.721Z,6.85
2023-03-02T02:36:05.224Z,6.07
2023-03-02T02:38:35.528Z,5.47
2023-03-02T02:41:07.774Z,6.57
2023-03-02T02:46:08.367Z,6.03
2023-03-02T02:48:37.132Z,5.97
2023-03-02T02:51:10.045Z,6.93
2023-03-02T02:53:44.311Z,6.38
2023-03-02T02:56:14.847Z,5.88
2023-03-02T02:58:50.503Z,6.40
2023-03-02T03:01:25.395Z,6.22
2023-03-02T03:03:57.904Z,6.00
2023-03-02T03:06:30.444Z,6.47
2023-03-02T03:11:41.454Z,5.88
2023-03-02T03:14:14.336Z,5.97
2023-03-02T03:16:46.564Z,7.03
2023-03-02T03:19:19.779Z,6.57
2023-03-02T03:21:53.211Z,6.38
2023-03-02T03:24:23.249Z,5.72
2023-03-02T03:26:52.332Z,7.25
2023-03-02T03:29:24.768Z,6.05
2023-03-02T03:31:57.691Z,6.47
2023-03-02T03:34:27.241Z,6.45
2023-03-02T03:37:01.702Z,6.80
2023-03-02T03:39:33.531Z,6.75
2023-03-02T03:42:02.528Z,6.88
2023-03-02T03:44:33.133Z,6.68
2023-03-02T03:47:02.125Z,5.88
2023-03-02T03:49:31.133Z,6.18
2023-03-02T03:51:59.870Z,6.93
2023-03-02T03:54:28.847Z,6.10
2023-03-02T03:56:57.595Z,6.25
2023-03-02T03:59:28.888Z,7.10
2023-03-02T04:02:04.804Z,6.57
2023-03-02T04:04:38.173Z,6.00
2023-03-02T04:07:11.936Z,7.15
2023-03-02T04:09:40.974Z,6.03
2023-03-02T04:12:12.727Z,5.82
2023-03-02T04:14:45.694Z,5.82
2023-03-02T04:17:16.135Z,5.80
2023-03-02T04:19:47.276Z,6.28
2023-03-02T04:22:17.346Z,5.40
2023-03-02T04:24:46.288Z,5.57
2023-03-02T04:27:16.021Z,5.97
2023-03-02T04:29:45.114Z,6.35
2023-03-02T04:32:15.867Z,6.03
2023-03-02T04:34:49.009Z,5.55
2023-03-02T04:37:18.103Z,5.65
2023-03-02T04:39:51.138Z,5.65
2023-03-02T04:44:48.833Z,5.43
2023-03-02T04:47:18.997Z,5.85
2023-03-02T04:49:50.021Z,6.55
2023-03-02T04:52:18.653Z,6.10
2023-03-02T04:54:47.478Z,6.25
2023-03-02T04:57:16.157Z,7.03
2023-03-02T04:59:45.096Z,6.38
2023-03-02T05:02:14.020Z,7.13
2023-03-02T05:04:44.379Z,6.50
2023-03-02T05:07:13.209Z,6.10
2023-03-02T05:09:41.934Z,5.97
2023-03-02T05:12:10.853Z,6.40
2023-03-02T05:14:39.507Z,6.38
2023-03-02T05:17:08.389Z,6.30
2023-03-02T05:19:37.165Z,5.70
2023-03-02T05:22:07.288Z,6.15
2023-03-02T05:24:37.369Z,5.93
2023-03-02T05:27:05.942Z,6.50
2023-03-02T05:29:34.795Z,5.65
2023-03-02T05:32:03.535Z,11.93
2023-03-02T05:34:32.358Z,6.20
2023-03-02T05:37:01.023Z,5.28
2023-03-02T05:39:31.132Z,5.78
2023-03-02T05:41:59.948Z,5.88
2023-03-02T05:44:28.801Z,6.03
2023-03-02T05:46:57.517Z,6.00
2023-03-02T05:49:26.480Z,5.15
2023-03-02T05:51:55.190Z,6.47
2023-03-02T05:54:24.261Z,6.10
2023-03-02T05:56:54.464Z,5.53
2023-03-02T05:59:26.382Z,5.38
2023-03-02T06:01:58.779Z,6.45
2023-03-02T06:04:27.811Z,5.47
2023-03-02T06:06:56.568Z,5.78
2023-03-02T06:09:25.351Z,6.20
2023-03-02T06:11:55.496Z,5.88
2023-03-02T06:14:24.200Z,5.00
2023-03-02T06:16:53.057Z,6.38
2023-03-02T06:19:21.851Z,6.18
2023-03-02T06:21:50.825Z,6.15
2023-03-02T06:24:19.566Z,5.70
2023-03-02T06:26:48.347Z,5.55
2023-03-02T06:29:18.549Z,5.78
2023-03-02T06:31:47.404Z,5.60
2023-03-02T06:34:17.253Z,5.90
2023-03-02T06:36:45.958Z,6.30
2023-03-02T06:39:16.836Z,6.78
2023-03-02T06:41:46.441Z,7.75
2023-03-02T06:44:16.190Z,5.93
2023-03-02T06:46:47.727Z,6.88
2023-03-02T06:49:16.583Z,5.60
2023-03-02T06:51:45.332Z,5.45
2023-03-02T06:54:14.140Z,5.32
2023-03-02T06:56:42.895Z,5.45
2023-03-02T06:59:11.748Z,6.38
2023-03-02T07:01:40.591Z,6.00
2023-03-02T07:04:10.686Z,5.90
2023-03-02T07:06:39.549Z,5.55
2023-03-02T07:09:08.222Z,5.95
2023-03-02T07:11:37.136Z,6.10
2023-03-02T07:14:05.930Z,5.93
2023-03-02T07:16:35.582Z,5.75
2023-03-02T07:19:04.484Z,5.18
2023-03-02T07:21:34.885Z,5.25
2023-03-02T07:24:03.701Z,5.50
2023-03-02T07:26:32.430Z,5.38
2023-03-02T07:29:01.105Z,6.13
2023-03-02T07:31:30.357Z,6.80
2023-03-02T07:33:59.373Z,6.55
2023-03-02T07:36:28.289Z,5.82
2023-03-02T07:38:58.621Z,6.25
2023-03-02T07:41:27.286Z,5.78
2023-03-02T07:43:57.042Z,5.90
2023-03-02T07:46:25.998Z,5.30
2023-03-02T07:48:55.098Z,5.85
2023-03-02T07:51:24.055Z,6.40
2023-03-02T07:53:52.770Z,6.68
2023-03-02T07:56:23.069Z,6.57
2023-03-02T07:58:51.761Z,6.45
2023-03-02T08:01:20.593Z,6.05
2023-03-02T08:03:49.412Z,5.95
2023-03-02T08:06:18.518Z,6.95
2023-03-02T08:08:47.490Z,6.75
2023-03-02T08:11:19.043Z,6.75
2023-03-02T08:13:49.204Z,6.78
2023-03-02T08:16:18.273Z,5.95
2023-03-02T08:18:47.100Z,6.70
2023-03-02T08:21:18.506Z,6.47
2023-03-02T08:23:47.590Z,6.22
2023-03-02T08:26:20.409Z,6.78
2023-03-02T08:28:50.656Z,6.30
2023-03-02T08:31:19.455Z,5.93
2023-03-02T08:33:48.314Z,6.07
2023-03-02T08:36:19.192Z,7.20
2023-03-02T08:38:48.780Z,6.55
2023-03-02T08:41:19.858Z,7.05
2023-03-02T08:43:50.076Z,7.28
2023-03-02T08:46:20.040Z,6.28
2023-03-02T08:48:49.683Z,5.90
2023-03-02T08:51:20.799Z,5.72
2023-03-02T08:53:51.511Z,7.03
2023-03-02T08:56:22.399Z,6.72
2023-03-02T08:58:54.816Z,7.18
2023-03-02T09:01:25.468Z,6.65
2023-03-02T09:03:54.523Z,6.38
2023-03-02T09:06:23.490Z,6.03
2023-03-02T09:08:52.568Z,7.43
2023-03-02T09:11:21.462Z,6.63
2023-03-02T09:13:50.356Z,7.07
2023-03-02T09:16:20.681Z,7.07
2023-03-02T09:18:49.534Z,6.05
2023-03-02T09:21:18.437Z,7.30
2023-03-02T09:23:47.173Z,6.68
2023-03-02T09:26:16.099Z,6.03
2023-03-02T09:28:44.942Z,7.38
2023-03-02T09:31:14.002Z,6.90
2023-03-02T09:33:44.861Z,7.75
2023-03-02T09:36:19.861Z,7.80
2023-03-02T09:38:49.033Z,7.30
2023-03-02T09:42:11.467Z,7.13
2023-03-02T09:45:18.897Z,7.10
2023-03-02T09:47:56.745Z,8.13
2023-03-02T09:50:32.656Z,7.78
2023-03-02T09:53:39.903Z,7.25
2023-03-02T09:56:15.564Z,7.43
2023-03-02T09:58:51.055Z,8.75
2023-03-02T10:01:30.488Z,6.60
2023-03-02T10:04:06.653Z,7.32
2023-03-02T10:06:37.022Z,7.88
2023-03-02T10:09:05.863Z,7.05
2023-03-02T10:11:50.668Z,7.32
2023-03-02T10:16:53.694Z,7.30
2023-03-02T10:19:27.069Z,8.82
2023-03-02T10:22:02.753Z,7.18
2023-03-02T10:24:39.645Z,8.43
2023-03-02T10:27:18.121Z,7.65
2023-03-02T10:29:55.578Z,7.90
2023-03-02T10:32:26.186Z,8.68
2023-03-02T10:34:55.715Z,9.93
2023-03-02T10:37:30.185Z,8.18
2023-03-02T10:39:59.200Z,9.85
2023-03-02T10:42:32.157Z,8.02
2023-03-02T10:45:09.651Z,8.73
2023-03-02T10:47:38.486Z,8.82
2023-03-02T10:50:25.857Z,8.95
2023-03-02T10:53:01.004Z,8.88
2023-03-02T10:55:31.804Z,9.57
2023-03-02T10:58:02.962Z,8.95
2023-03-02T11:00:32.719Z,9.45
2023-03-02T11:03:03.767Z,9.10
2023-03-02T11:05:34.782Z,8.48
2023-03-02T11:08:06.717Z,9.52
2023-03-02T11:10:37.839Z,9.00
2023-03-02T11:13:19.037Z,8.98
2023-03-02T11:15:49.514Z,10.70
2023-03-02T11:18:27.558Z,9.18
2023-03-02T11:21:02.017Z,7.72
2023-03-02T11:23:49.604Z,8.60
2023-03-02T11:26:24.801Z,8.25
2023-03-02T11:28:59.961Z,10.73
2023-03-02T11:31:34.890Z,9.30
2023-03-02T11:34:18.332Z,8.35
2023-03-02T11:36:57.464Z,7.18
2023-03-02T11:39:35.123Z,9.75
2023-03-02T11:42:04.899Z,8.57
2023-03-02T11:44:33.632Z,9.57
2023-03-02T11:47:03.073Z,8.43
2023-03-02T11:49:39.248Z,9.88
2023-03-02T11:52:17.134Z,8.70
2023-03-02T11:54:50.728Z,10.07
2023-03-02T11:57:24.213Z,9.27
2023-03-02T11:59:54.429Z,8.88
2023-03-02T12:02:24.213Z,9.55
2023-03-02T12:05:04.402Z,9.23
2023-03-02T12:07:33.739Z,10.60
2023-03-02T12:10:07.932Z,8.13
2023-03-02T12:12:58.939Z,9.50
2023-03-02T12:15:37.362Z,10.63
2023-03-02T12:18:31.365Z,10.70
2023-03-02T12:21:02.739Z,9.95
2023-03-02T12:23:32.991Z,9.35
2023-03-02T12:26:10.213Z,8.05
2023-03-02T12:28:40.934Z,9.23
2023-03-02T12:31:13.858Z,10.25
2023-03-02T12:33:46.745Z,10.23
2023-03-02T12:36:19.924Z,9.85
2023-03-02T12:39:03.924Z,9.98
2023-03-02T12:41:56.297Z,10.25
2023-03-02T12:44:35.086Z,8.77
2023-03-02T12:47:05.041Z,9.45
2023-03-02T12:49:47.403Z,9.80
2023-03-02T12:52:29.024Z,10.30
2023-03-02T12:55:07.290Z,9.63
2023-03-02T12:57:39.514Z,7.63
2023-03-02T13:00:18.435Z,8.68
2023-03-02T13:02:49.148Z,9.23
2023-03-02T13:05:21.652Z,9.13
2023-03-02T13:08:00.051Z,8.48
2023-03-02T13:10:32.504Z,9.93
2023-03-02T13:13:04.503Z,9.50
2023-03-02T13:15:33.487Z,10.13
2023-03-02T13:18:02.397Z,9.25
2023-03-02T13:20:31.829Z,10.98
2023-03-02T13:23:00.592Z,9.98
2023-03-02T13:25:31.295Z,9.88
2023-03-02T13:28:07.597Z,10.73
2023-03-02T13:30:43.580Z,9.98
2023-03-02T13:33:23.372Z,11.15
2023-03-02T13:35:52.303Z,10.40
2023-03-02T13:38:23.397Z,9.95
2023-03-02T13:40:54.139Z,10.15
2023-03-02T13:43:37.863Z,9.52
2023-03-02T13:46:25.546Z,10.07
2023-03-02T13:49:14.221Z,9.65
2023-03-02T13:51:46.488Z,9.35
2023-03-02T13:54:24.381Z,9.20
2023-03-02T13:56:54.466Z,9.20
2023-03-02T13:59:24.831Z,9.57
2023-03-02T14:01:54.062Z,9.65
2023-03-02T14:04:24.693Z,10.02
2023-03-02T14:06:56.102Z,9.18
2023-03-02T14:09:27.218Z,9.68
2023-03-02T14:11:57.863Z,8.75
2023-03-02T14:14:30.373Z,9.38
2023-03-02T14:19:27.778Z,8.48
2023-03-02T14:21:57.579Z,8.30
2023-03-02T14:24:26.462Z,9.23
2023-03-02T14:26:58.997Z,8.60
2023-03-02T14:29:31.603Z,8.73
2023-03-02T14:32:03.689Z,9.93
2023-03-02T14:34:32.520Z,9.40
2023-03-02T14:37:05.062Z,10.10
2023-03-02T14:39:37.016Z,8.70
2023-03-02T14:42:06.554Z,8.52
2023-03-02T14:44:37.044Z,9.68
2023-03-02T14:47:05.868Z,8.10
2023-03-02T14:49:34.842Z,9.45
2023-03-02T14:52:07.360Z,9.25
2023-03-02T14:54:41.554Z,9.52
2023-03-02T14:57:18.120Z,8.50
2023-03-02T14:59:51.216Z,9.25
2023-03-02T15:02:25.587Z,9.27
2023-03-02T15:04:57.150Z,10.10
2023-03-02T15:07:27.771Z,8.75
2023-03-02T15:09:57.429Z,9.40
2023-03-02T15:12:26.774Z,8.68
2023-03-02T15:14:56.879Z,8.73
2023-03-02T15:17:25.720Z,9.23
2023-03-02T15:19:54.590Z,8.73
2023-03-02T15:22:23.591Z,9.07
2023-03-02T15:24:52.505Z,7.63
2023-03-02T15:27:23.137Z,9.38
2023-03-02T15:29:52.075Z,7.78
2023-03-02T15:32:22.374Z,8.05
2023-03-02T15:34:54.256Z,8.65
2023-03-02T15:37:26.209Z,8.95
2023-03-02T15:39:56.112Z,8.35
2023-03-02T15:42:25.204Z,8.68
2023-03-02T15:44:53.975Z,8.40
2023-03-02T15:47:24.639Z,8.02
2023-03-02T15:49:53.377Z,7.97
2023-03-02T15:52:22.353Z,7.95
2023-03-02T15:54:51.326Z,7.00
2023-03-02T15:57:20.153Z,7.10
2023-03-02T15:59:48.885Z,8.52
2023-03-02T16:02:17.746Z,8.10
2023-03-02T16:04:48.169Z,7.47
2023-03-02T16:07:19.627Z,7.75
2023-03-02T16:09:48.876Z,7.00
2023-03-02T16:12:18.645Z,7.53
2023-03-02T16:14:47.473Z,7.60
2023-03-02T16:17:17.901Z,7.20
2023-03-02T16:19:48.042Z,7.10
2023-03-02T16:22:16.796Z,7.75
2023-03-02T16:24:46.174Z,7.82
2023-03-02T16:27:14.868Z,7.47
2023-03-02T16:29:43.747Z,7.70
2023-03-02T16:32:12.582Z,7.63
2023-03-02T16:34:41.508Z,6.95
2023-03-02T16:37:11.741Z,8.45
2023-03-02T16:39:40.595Z,8.35
2023-03-02T16:42:09.391Z,7.90
2023-03-02T16:44:39.246Z,8.10
2023-03-02T16:47:07.957Z,6.95
2023-03-02T16:49:36.762Z,7.90
2023-03-02T16:52:05.882Z,7.85
2023-03-02T16:54:35.924Z,7.15
2023-03-02T16:57:05.046Z,8.48
2023-03-02T16:59:33.829Z,7.45
2023-03-02T17:02:02.766Z,8.77
2023-03-02T17:04:34.780Z,7.93
2023-03-02T17:07:04.052Z,8.13
2023-03-02T17:09:35.158Z,8.82
2023-03-02T17:12:04.689Z,9.07
2023-03-02T17:14:33.433Z,7.75
2023-03-02T17:17:05.119Z,8.98
2023-03-02T17:19:34.259Z,8.35
2023-03-02T17:22:04.084Z,8.32
2023-03-02T17:24:32.867Z,8.25
2023-03-02T17:27:04.253Z,7.65
2023-03-02T17:29:34.282Z,8.98
2023-03-02T17:32:03.191Z,9.23
2023-03-02T17:34:32.015Z,8.73
2023-03-02T17:37:01.596Z,8.10
2023-03-02T17:39:30.610Z,7.80
2023-03-02T17:41:59.412Z,8.82
2023-03-02T17:44:29.743Z,6.32
2023-03-02T17:46:58.467Z,6.95
2023-03-02T17:49:27.386Z,7.95
2023-03-02T17:51:56.132Z,7.18
2023-03-02T17:54:24.978Z,7.47
2023-03-02T17:56:53.657Z,7.88
2023-03-02T17:59:23.513Z,7.72
2023-03-02T18:01:53.739Z,8.07
2023-03-02T18:04:22.848Z,8.90
2023-03-02T18:06:53.984Z,7.63
2023-03-02T18:09:23.326Z,8.02
2023-03-02T18:11:52.300Z,8.15
2023-03-02T18:14:21.772Z,9.40
2023-03-02T18:16:50.715Z,8.13
2023-03-02T18:19:21.163Z,7.68
2023-03-02T18:21:50.417Z,7.90
2023-03-02T18:24:19.262Z,8.32
2023-03-02T18:26:48.045Z,8.45
2023-03-02T18:29:17.199Z,7.68
2023-03-02T18:31:47.981Z,7.93
2023-03-02T18:34:16.908Z,8.43
2023-03-02T18:36:47.242Z,9.23
2023-03-02T18:39:16.165Z,8.70
2023-03-02T18:41:45.098Z,7.60
2023-03-02T18:44:13.950Z,8.45
2023-03-02T18:46:43.039Z,9.60
2023-03-02T18:49:11.835Z,8.05
2023-03-02T18:51:40.678Z,6.65
2023-03-02T18:54:10.939Z,8.48
2023-03-02T18:56:41.889Z,7.13
2023-03-02T18:59:11.193Z,8.13
2023-03-02T19:01:40.203Z,8.90
2023-03-02T19:04:09.089Z,7.82
2023-03-02T19:06:37.983Z,7.18
2023-03-02T19:09:06.830Z,8.18
2023-03-02T19:11:37.212Z,8.10
2023-03-02T19:14:05.999Z,7.93
2023-03-02T19:16:35.862Z,6.72
2023-03-02T19:19:04.707Z,7.55
2023-03-02T19:21:33.604Z,8.65
2023-03-02T19:24:02.665Z,8.40
2023-03-02T19:26:31.473Z,7.45
2023-03-02T19:29:01.672Z,7.03
2023-03-02T19:31:31.312Z,6.93
2023-03-02T19:34:01.204Z,7.10
2023-03-02T19:36:29.978Z,7.85
2023-03-02T19:38:58.796Z,7.68
2023-03-02T19:41:27.711Z,8.07
2023-03-02T19:43:56.498Z,7.95
2023-03-02T19:46:26.724Z,8.50
2023-03-02T19:48:55.682Z,6.90
2023-03-02T19:51:24.549Z,7.32
2023-03-02T19:53:53.287Z,7.80
2023-03-02T19:56:26.794Z,7.25
2023-03-02T19:58:55.456Z,8.05
2023-03-02T20:01:27.851Z,8.02
2023-03-02T20:03:57.922Z,7.57
2023-03-02T20:06:31.249Z,8.18
2023-03-02T20:09:01.600Z,7.88
2023-03-02T20:11:31.366Z,8.10
2023-03-02T20:14:02.165Z,8.52
2023-03-02T20:16:33.864Z,7.72
2023-03-02T20:19:03.583Z,8.50
2023-03-02T20:21:33.403Z,8.07
2023-03-02T20:24:03.528Z,8.95
2023-03-02T20:26:33.167Z,8.25
2023-03-02T20:29:04.924Z,8.07
2023-03-02T20:31:36.291Z,8.35
2023-03-02T20:34:08.699Z,7.93
2023-03-02T20:36:39.414Z,8.05
2023-03-02T20:39:12.111Z,8.63
2023-03-02T20:41:41.499Z,7.97
2023-03-02T20:44:14.495Z,8.25
2023-03-02T20:46:47.869Z,8.50
2023-03-02T20:49:16.917Z,8.20
2023-03-02T20:51:52.672Z,9.10
2023-03-02T20:54:25.080Z,8.25
2023-03-02T20:56:55.054Z,7.35
2023-03-02T20:59:24.734Z,8.50
2023-03-02T21:01:55.061Z,8.80
2023-03-02T21:04:24.096Z,8.57
2023-03-02T21:06:52.936Z,9.32
2023-03-02T21:09:22.292Z,8.18
2023-03-02T21:11:51.259Z,8.52
2023-03-02T21:14:20.517Z,9.13
2023-03-02T21:16:49.638Z,8.77
2023-03-02T21:19:20.379Z,9.35
2023-03-02T21:21:50.121Z,8.93
2023-03-02T21:24:20.793Z,9.63
2023-03-02T21:26:51.744Z,10.00
2023-03-02T21:29:23.021Z,9.85
2023-03-02T21:31:54.035Z,9.60
2023-03-02T21:34:24.761Z,9.95
2023-03-02T21:36:54.179Z,9.10
2023-03-02T21:39:24.178Z,10.18
2023-03-02T21:41:53.913Z,9.88
2023-03-02T21:44:23.004Z,9.50
2023-03-02T21:46:52.090Z,9.93
2023-03-02T21:49:23.733Z,10.05
2023-03-02T21:51:52.621Z,9.82
2023-03-02T21:54:21.555Z,9.68
2023-03-02T21:56:50.715Z,9.45
2023-03-02T21:59:22.321Z,9.45
2023-03-02T22:01:51.223Z,10.55
2023-03-02T22:04:20.044Z,8.80
2023-03-02T22:06:50.235Z,10.20
2023-03-02T22:09:19.197Z,9.55
2023-03-02T22:11:48.523Z,10.57
2023-03-02T22:14:18.723Z,11.38
2023-03-02T22:16:48.337Z,10.00
2023-03-02T22:19:26.977Z,10.45
2023-03-02T22:22:01.191Z,10.68
2023-03-02T22:24:32.094Z,10.85
2023-03-02T22:27:10.219Z,10.85
2023-03-02T22:29:45.693Z,10.48
2023-03-02T22:32:18.126Z,10.35
2023-03-02T22:34:48.822Z,10.13
2023-03-02T22:37:20.913Z,11.85
2023-03-02T22:39:51.593Z,10.50
2023-03-02T22:42:22.774Z,10.93
2023-03-02T22:44:56.732Z,11.27
2023-03-02T22:47:26.221Z,10.52
2023-03-02T22:49:58.069Z,11.45
2023-03-02T22:52:36.161Z,10.98
2023-03-02T22:55:31.844Z,11.07
2023-03-02T22:58:01.255Z,10.60
2023-03-02T23:00:38.428Z,11.65
2023-03-02T23:03:17.642Z,11.43
2023-03-02T23:05:49.192Z,10.20
2023-03-02T23:08:23.385Z,10.63
2023-03-02T23:10:54.000Z,11.20
2023-03-02T23:13:27.218Z,11.20
2023-03-02T23:15:56.474Z,11.68
2023-03-02T23:18:27.273Z,10.85
2023-03-02T23:20:56.682Z,11.70
2023-03-02T23:23:28.572Z,10.73
2023-03-02T23:25:57.489Z,11.32
2023-03-02T23:28:26.222Z,12.65
2023-03-02T23:30:54.954Z,11.40
2023-03-02T23:33:23.656Z,12.80
2023-03-02T23:35:52.696Z,11.43
2023-03-02T23:38:21.494Z,11.80
2023-03-02T23:40:51.657Z,12.82
2023-03-02T23:43:20.613Z,10.27
2023-03-02T23:45:49.428Z,12.55
2023-03-02T23:48:18.549Z,11.85
2023-03-02T23:50:47.291Z,11.25
2023-03-02T23:53:20.619Z,12.38
2023-03-02T23:55:53.622Z,12.00
2023-03-02T23:58:22.576Z,12.50
